Time;durP1;ratioP1;P1;durP2;ratioP2;P2;SDS_P1;SDS_P2;PMS_P1;PMS_P2;Temp;Humidity;BMP_temperature;BMP_pressure;BME280_temperature;BME280_humidity;BME280_pressure;Samples;Min_cycle;Max_cycle;Signal;HPM_P1;HPM_P2
2024/01/29 00:01:36;;;;;;;15.20;8.73;;;2.50;79.20;;;;;;5023643;28;20201;-71
2024/01/29 00:04:03;;;;;;;18.83;9.80;;;2.60;79.30;;;;;;5024362;28;20699;-71
2024/01/29 00:06:29;;;;;;;14.30;8.50;;;2.50;79.30;;;;;;5030029;28;20193;-71
2024/01/29 00:08:55;;;;;;;14.60;8.90;;;2.60;79.50;;;;;;5032317;28;20190;-72
2024/01/29 00:11:20;;;;;;;15.80;8.80;;;2.60;79.50;;;;;;5022794;28;20217;-72
2024/01/29 00:13:46;;;;;;;15.20;7.93;;;2.50;79.50;;;;;;5025998;28;20185;-71
2024/01/29 00:16:12;;;;;;;15.70;8.50;;;2.50;79.30;;;;;;5029299;28;20182;-71
2024/01/29 00:18:38;;;;;;;13.25;8.60;;;2.50;79.30;;;;;;5032278;28;20244;-71
2024/01/29 00:21:04;;;;;;;16.13;8.03;;;2.40;79.30;;;;;;5021282;28;20656;-70
2024/01/29 00:23:30;;;;;;;12.50;7.77;;;2.50;79.60;;;;;;5021346;28;20208;-71
2024/01/29 00:25:56;;;;;;;12.35;8.63;;;2.40;79.50;;;;;;5035847;28;20212;-71
2024/01/29 00:28:21;;;;;;;15.80;8.50;;;2.40;79.50;;;;;;5023075;28;20272;-71
2024/01/29 00:30:47;;;;;;;23.13;8.53;;;2.40;79.70;;;;;;5029286;28;20279;-71
2024/01/29 00:33:13;;;;;;;14.90;8.53;;;2.50;79.60;;;;;;5021959;28;20435;-71
2024/01/29 00:35:39;;;;;;;14.20;7.67;;;2.50;79.50;;;;;;5033679;28;20190;-71
2024/01/29 00:38:05;;;;;;;14.80;9.10;;;2.50;79.60;;;;;;5029144;28;20280;-71
2024/01/29 00:40:32;;;;;;;12.00;8.45;;;2.50;79.50;;;;;;5035324;28;20638;-71
2024/01/29 00:43:01;;;;;;;15.90;9.80;;;2.40;79.50;;;;;;5021749;28;20181;-71
2024/01/29 00:45:27;;;;;;;18.17;9.93;;;2.50;79.60;;;;;;5031832;28;20476;-71
2024/01/29 00:47:52;;;;;;;17.03;10.00;;;2.40;79.60;;;;;;5023948;28;20559;-71
2024/01/29 00:50:19;;;;;;;15.10;8.80;;;2.40;79.60;;;;;;5035509;28;20694;-70
2024/01/29 00:52:44;;;;;;;14.63;8.93;;;2.40;79.60;;;;;;5027553;28;20182;-71
2024/01/29 00:55:10;;;;;;;16.90;9.63;;;2.40;79.60;;;;;;5027978;28;20443;-71
2024/01/29 00:57:36;;;;;;;11.50;8.00;;;2.40;79.70;;;;;;5026446;28;20184;-71
2024/01/29 01:00:02;;;;;;;15.33;7.97;;;2.30;80.00;;;;;;5030463;28;20259;-73
2024/01/29 01:02:28;;;;;;;12.63;7.80;;;2.30;80.30;;;;;;5023194;28;21053;-70
2024/01/29 01:04:54;;;;;;;12.30;8.20;;;2.40;80.30;;;;;;5025621;28;20464;-71
2024/01/29 01:07:19;;;;;;;13.20;8.30;;;2.40;80.30;;;;;;5035184;28;20239;-71
2024/01/29 01:09:45;;;;;;;13.20;8.13;;;2.40;80.20;;;;;;5034876;28;20185;-71
2024/01/29 01:12:11;;;;;;;14.00;8.77;;;2.50;80.00;;;;;;5027682;28;20207;-71
2024/01/29 01:14:36;;;;;;;14.30;8.83;;;2.40;79.70;;;;;;5023460;28;20180;-71
2024/01/29 01:17:02;;;;;;;16.17;8.63;;;2.40;80.00;;;;;;5026258;28;20689;-73
2024/01/29 01:19:27;;;;;;;13.70;8.13;;;2.40;80.20;;;;;;5028136;28;20193;-71
2024/01/29 01:21:53;;;;;;;15.30;8.73;;;2.50;80.00;;;;;;5026674;28;20212;-71
2024/01/29 01:24:18;;;;;;;13.03;8.40;;;2.50;79.70;;;;;;5021805;28;20218;-71
2024/01/29 01:26:44;;;;;;;13.40;8.43;;;2.40;79.70;;;;;;5032854;28;20180;-71
2024/01/29 01:29:09;;;;;;;11.50;7.37;;;2.50;80.00;;;;;;5022245;28;20543;-71
2024/01/29 01:31:35;;;;;;;13.53;7.37;;;2.50;79.70;;;;;;5021238;28;20212;-71
2024/01/29 01:34:01;;;;;;;13.33;7.67;;;2.50;79.70;;;;;;5019651;28;20591;-72
2024/01/29 01:36:26;;;;;;;13.30;8.20;;;2.50;79.70;;;;;;5033633;28;20271;-71
2024/01/29 01:38:52;;;;;;;10.77;7.20;;;2.50;79.60;;;;;;5022274;28;20273;-71
2024/01/29 01:41:17;;;;;;;10.90;6.77;;;2.50;79.60;;;;;;5024657;28;20635;-71
2024/01/29 01:43:43;;;;;;;10.60;7.00;;;2.50;79.60;;;;;;5020886;28;20200;-71
2024/01/29 01:46:29;;;;;;;12.20;7.93;;;2.40;79.30;;;;;;5025496;28;20190;-72
2024/01/29 01:48:56;;;;;;;14.00;7.82;;;2.40;79.60;;;;;;5019053;28;20709;-71
2024/01/29 01:51:23;;;;;;;13.52;7.38;;;2.40;79.70;;;;;;5029554;28;20223;-72
2024/01/29 01:53:51;;;;;;;14.82;7.55;;;2.40;79.70;;;;;;5024869;28;20242;-71
2024/01/29 01:56:18;;;;;;;9.90;6.95;;;2.40;79.70;;;;;;5038026;28;20558;-71
2024/01/29 01:58:44;;;;;;;12.77;7.57;;;2.40;80.00;;;;;;5028509;28;20183;-71
2024/01/29 02:01:12;;;;;;;10.33;6.77;;;2.40;80.00;;;;;;5034557;28;20698;-70
2024/01/29 02:03:39;;;;;;;16.10;8.53;;;2.30;80.00;;;;;;5016414;28;20439;-71
2024/01/29 02:06:06;;;;;;;12.95;7.90;;;2.30;80.00;;;;;;5025477;28;20483;-70
2024/01/29 02:08:32;;;;;;;14.50;7.38;;;2.30;80.00;;;;;;5033463;28;20196;-70
2024/01/29 02:11:02;;;;;;;11.47;7.40;;;2.30;80.00;;;;;;5022722;28;20214;-70
2024/01/29 02:13:28;;;;;;;9.60;6.60;;;2.20;79.90;;;;;;5021469;28;20718;-71
2024/01/29 02:15:53;;;;;;;11.50;7.27;;;2.20;80.20;;;;;;5023568;28;20272;-70
2024/01/29 02:18:19;;;;;;;15.80;7.57;;;2.20;80.50;;;;;;5025982;28;20196;-70
2024/01/29 02:20:45;;;;;;;15.30;7.80;;;2.20;80.50;;;;;;5021885;28;20210;-70
2024/01/29 02:23:10;;;;;;;16.67;7.90;;;2.20;80.50;;;;;;5021806;28;20196;-71
2024/01/29 02:25:36;;;;;;;13.07;6.87;;;2.20;80.60;;;;;;5019695;28;20479;-70
2024/01/29 02:28:02;;;;;;;11.73;5.93;;;2.20;80.60;;;;;;5020668;28;20195;-70
2024/01/29 02:30:28;;;;;;;10.97;6.80;;;2.20;80.50;;;;;;5016720;28;20201;-71
2024/01/29 02:32:53;;;;;;;12.13;7.40;;;2.10;80.50;;;;;;5021701;28;20188;-70
2024/01/29 02:35:19;;;;;;;11.63;6.73;;;2.00;80.60;;;;;;5021409;28;20439;-71
2024/01/29 02:37:45;;;;;;;9.13;6.53;;;2.00;80.90;;;;;;5020767;28;20177;-71
2024/01/29 02:40:10;;;;;;;14.40;7.17;;;2.00;81.40;;;;;;5019271;28;20205;-71
2024/01/29 02:42:36;;;;;;;12.23;7.37;;;2.00;81.40;;;;;;5026454;28;20181;-71
2024/01/29 02:45:03;;;;;;;12.20;7.17;;;2.00;81.20;;;;;;5023513;28;20229;-70
2024/01/29 02:47:29;;;;;;;13.18;6.93;;;2.00;81.20;;;;;;5025439;28;20990;-71
2024/01/29 02:49:54;;;;;;;13.73;8.07;;;2.00;81.40;;;;;;5016616;28;20269;-71
2024/01/29 02:52:20;;;;;;;11.80;6.63;;;2.00;81.50;;;;;;5020013;28;20636;-71
2024/01/29 02:54:46;;;;;;;13.40;7.70;;;2.00;81.50;;;;;;5014000;28;20205;-71
2024/01/29 02:57:12;;;;;;;10.70;6.40;;;2.00;81.70;;;;;;5024746;28;20213;-72
2024/01/29 02:59:39;;;;;;;9.30;6.03;;;2.00;81.40;;;;;;5017461;28;20443;-71
2024/01/29 03:02:06;;;;;;;10.70;6.25;;;2.00;81.40;;;;;;5018885;28;20667;-71
2024/01/29 03:04:32;;;;;;;9.45;6.57;;;2.00;81.50;;;;;;5017794;28;20215;-71
2024/01/29 03:06:57;;;;;;;8.80;6.23;;;2.00;81.50;;;;;;5020726;28;20198;-71
2024/01/29 03:09:23;;;;;;;11.17;6.10;;;2.00;81.70;;;;;;5022855;28;20185;-71
2024/01/29 03:11:49;;;;;;;12.63;6.13;;;2.00;81.40;;;;;;5024981;28;20705;-70
2024/01/29 03:14:14;;;;;;;10.50;6.30;;;2.00;81.40;;;;;;5020095;28;20558;-72
2024/01/29 03:16:40;;;;;;;9.23;5.23;;;2.00;81.20;;;;;;5020258;28;20178;-72
2024/01/29 03:19:07;;;;;;;10.60;6.17;;;1.90;81.20;;;;;;5020044;28;20264;-70
2024/01/29 03:21:33;;;;;;;8.43;6.18;;;2.00;81.20;;;;;;5022530;28;20220;-70
2024/01/29 03:23:59;;;;;;;9.52;6.00;;;1.90;81.20;;;;;;5023439;28;20209;-71
2024/01/29 03:26:25;;;;;;;13.27;7.07;;;1.90;81.40;;;;;;5023943;28;20272;-70
2024/01/29 03:28:51;;;;;;;10.83;6.53;;;1.90;81.40;;;;;;5031863;28;20428;-71
2024/01/29 03:31:16;;;;;;;11.45;6.68;;;1.90;81.40;;;;;;5019719;28;20358;-71
2024/01/29 03:33:42;;;;;;;13.43;7.47;;;1.90;81.40;;;;;;5028553;28;20193;-69
2024/01/29 03:36:08;;;;;;;13.27;6.87;;;1.80;81.50;;;;;;5020469;28;20227;-70
2024/01/29 03:38:34;;;;;;;9.80;5.90;;;1.80;81.50;;;;;;5026717;28;20188;-71
2024/01/29 03:41:00;;;;;;;8.70;6.40;;;1.80;81.70;;;;;;5013591;28;20467;-71
2024/01/29 03:43:26;;;;;;;12.65;6.72;;;1.80;81.70;;;;;;5024635;28;20524;-71
2024/01/29 03:45:53;;;;;;;9.60;6.00;;;1.80;81.80;;;;;;5018375;28;20213;-70
2024/01/29 03:48:19;;;;;;;10.98;6.15;;;1.80;81.80;;;;;;5021749;28;20209;-71
2024/01/29 03:50:45;;;;;;;13.07;7.00;;;1.80;81.80;;;;;;5014793;28;20201;-71
2024/01/29 03:53:11;;;;;;;10.27;6.20;;;1.80;81.80;;;;;;5021137;28;20205;-72
2024/01/29 03:55:36;;;;;;;10.57;6.50;;;1.80;81.80;;;;;;5020160;28;20181;-71
2024/01/29 03:58:02;;;;;;;10.40;6.60;;;1.80;81.90;;;;;;5020898;28;20596;-71
2024/01/29 04:00:29;;;;;;;11.50;6.40;;;1.80;81.80;;;;;;5015090;28;20224;-70
2024/01/29 04:02:55;;;;;;;9.38;6.25;;;1.80;81.90;;;;;;5022766;28;20697;-70
2024/01/29 04:05:20;;;;;;;11.93;6.63;;;1.80;81.90;;;;;;5018747;28;20333;-70
2024/01/29 04:07:46;;;;;;;11.43;6.47;;;1.80;82.10;;;;;;5023723;28;20182;-70
2024/01/29 04:10:12;;;;;;;12.97;7.17;;;1.70;82.10;;;;;;5023093;28;22040;-71
2024/01/29 04:12:37;;;;;;;13.47;6.70;;;1.70;82.10;;;;;;5026701;28;20186;-70
2024/01/29 04:15:04;;;;;;;9.67;6.50;;;1.80;82.20;;;;;;5024253;28;20197;-71
2024/01/29 04:17:29;;;;;;;10.93;5.82;;;1.80;82.20;;;;;;5024388;28;20601;-72
2024/01/29 04:19:55;;;;;;;12.63;6.80;;;1.80;82.10;;;;;;5022639;28;20177;-71
2024/01/29 04:22:21;;;;;;;14.17;7.17;;;1.80;82.10;;;;;;5036082;28;20192;-70
2024/01/29 04:24:46;;;;;;;11.10;7.77;;;1.80;81.90;;;;;;5030118;28;20463;-71
2024/01/29 04:27:12;;;;;;;12.73;7.33;;;1.70;81.90;;;;;;5034403;28;20213;-72
2024/01/29 04:29:38;;;;;;;16.20;8.20;;;1.80;82.10;;;;;;5034018;28;20217;-71
2024/01/29 04:32:04;;;;;;;15.50;8.13;;;1.80;82.20;;;;;;5022866;28;20205;-72
2024/01/29 04:34:30;;;;;;;18.48;8.85;;;1.90;82.10;;;;;;5025361;28;20216;-71
2024/01/29 04:36:55;;;;;;;12.60;7.97;;;1.90;81.90;;;;;;5023385;28;20210;-73
2024/01/29 04:39:21;;;;;;;14.80;8.90;;;1.90;81.90;;;;;;5032899;28;20224;-72
2024/01/29 04:41:46;;;;;;;20.43;9.67;;;1.90;81.80;;;;;;5021953;28;20205;-71
2024/01/29 04:44:14;;;;;;;15.13;9.13;;;1.90;81.80;;;;;;5024741;28;20614;-71
2024/01/29 04:46:40;;;;;;;13.77;8.35;;;1.90;81.70;;;;;;5021874;28;20190;-71
2024/01/29 04:49:06;;;;;;;16.97;9.23;;;1.90;81.80;;;;;;5032306;28;20190;-71
2024/01/29 04:51:31;;;;;;;12.80;7.67;;;1.90;81.70;;;;;;5024122;28;20506;-71
2024/01/29 04:53:57;;;;;;;16.90;8.50;;;1.90;81.70;;;;;;5022733;28;20196;-72
2024/01/29 04:56:22;;;;;;;16.10;6.60;;;1.80;81.80;;;;;;5032663;28;20185;-72
2024/01/29 04:58:48;;;;;;;14.13;6.57;;;1.80;81.90;;;;;;5035081;28;20535;-71
2024/01/29 05:01:14;;;;;;;15.43;7.00;;;1.90;82.10;;;;;;5030642;28;20244;-71
2024/01/29 05:03:40;;;;;;;9.77;6.10;;;1.90;81.90;;;;;;5033429;28;20185;-71
2024/01/29 05:06:06;;;;;;;9.73;6.70;;;2.00;81.80;;;;;;5039416;28;20217;-71
2024/01/29 05:08:31;;;;;;;9.05;6.28;;;2.00;81.70;;;;;;5038831;28;20193;-70
2024/01/29 05:10:57;;;;;;;9.20;6.10;;;2.00;81.50;;;;;;5025337;28;20212;-71
2024/01/29 05:13:22;;;;;;;10.33;6.30;;;2.00;81.50;;;;;;5028263;28;20201;-72
2024/01/29 05:15:48;;;;;;;10.00;6.00;;;2.00;81.50;;;;;;5030633;28;20184;-72
2024/01/29 05:18:14;;;;;;;12.53;6.13;;;1.90;81.50;;;;;;5029401;28;20190;-72
2024/01/29 05:20:39;;;;;;;11.43;7.03;;;1.90;81.50;;;;;;5016956;28;20300;-70
2024/01/29 05:23:05;;;;;;;12.97;7.87;;;2.00;81.50;;;;;;5021642;28;20452;-72
2024/01/29 05:25:31;;;;;;;9.60;5.93;;;2.00;81.50;;;;;;5031724;28;20220;-71
2024/01/29 05:27:57;;;;;;;11.73;6.32;;;2.00;81.40;;;;;;5032534;28;20224;-70
2024/01/29 05:30:23;;;;;;;14.20;6.33;;;2.00;81.20;;;;;;5024881;28;20237;-70
2024/01/29 05:32:49;;;;;;;10.40;6.03;;;2.00;81.10;;;;;;5020124;28;20669;-72
2024/01/29 05:35:14;;;;;;;9.90;5.50;;;2.00;81.10;;;;;;5024500;28;20190;-72
2024/01/29 05:37:40;;;;;;;8.87;5.30;;;2.10;80.80;;;;;;5028874;28;20619;-71
2024/01/29 05:40:07;;;;;;;6.80;4.80;;;2.10;80.80;;;;;;5040324;28;20199;-72
2024/01/29 05:42:33;;;;;;;14.13;7.38;;;2.10;80.60;;;;;;5027375;28;20268;-71
2024/01/29 05:44:58;;;;;;;14.77;8.27;;;2.10;80.50;;;;;;5032640;28;20736;-72
2024/01/29 05:47:24;;;;;;;14.50;8.63;;;2.10;80.50;;;;;;5022975;28;20190;-70
2024/01/29 05:49:49;;;;;;;16.97;8.77;;;2.00;80.50;;;;;;5038320;28;20185;-72
2024/01/29 05:52:15;;;;;;;19.90;10.30;;;2.10;80.80;;;;;;5022072;28;20285;-73
2024/01/29 05:54:40;;;;;;;16.30;9.40;;;2.20;80.80;;;;;;5033286;28;20184;-71
2024/01/29 05:57:10;;;;;;;8.37;6.17;;;2.20;80.80;;;;;;5026343;28;20178;-71
2024/01/29 05:59:39;;;;;;;11.83;7.30;;;2.10;80.80;;;;;;5032752;28;20284;-71
2024/01/29 06:02:05;;;;;;;15.97;8.93;;;2.20;81.10;;;;;;5021062;28;20456;-71
2024/01/29 06:04:30;;;;;;;11.90;7.43;;;2.20;80.90;;;;;;5029614;28;20478;-71
2024/01/29 06:06:56;;;;;;;14.60;8.60;;;2.20;80.80;;;;;;5021350;28;20189;-71
2024/01/29 06:09:22;;;;;;;16.03;9.87;;;2.20;80.80;;;;;;5032699;28;20264;-71
2024/01/29 06:11:51;;;;;;;18.33;8.55;;;2.20;80.90;;;;;;5019240;28;20223;-71
2024/01/29 06:14:17;;;;;;;18.60;9.30;;;2.20;80.80;;;;;;5022020;28;20185;-71
2024/01/29 06:16:45;;;;;;;12.07;7.60;;;2.20;80.80;;;;;;5023467;28;20438;-71
2024/01/29 06:19:17;;;;;;;13.57;6.90;;;2.20;80.90;;;;;;5025019;28;20468;-71
2024/01/29 06:21:45;;;;;;;10.40;6.88;;;2.30;80.90;;;;;;5016667;28;20483;-71
2024/01/29 06:24:11;;;;;;;11.98;7.35;;;2.20;80.80;;;;;;5018485;28;20235;-71
2024/01/29 06:26:37;;;;;;;14.23;7.10;;;2.20;80.80;;;;;;5034661;28;20642;-71
2024/01/29 06:29:03;;;;;;;13.77;7.33;;;2.10;80.60;;;;;;5026296;28;20272;-71
2024/01/29 06:31:29;;;;;;;13.00;7.30;;;2.10;80.60;;;;;;5025486;28;20469;-70
2024/01/29 06:33:55;;;;;;;12.77;6.87;;;2.10;80.60;;;;;;5023248;28;20204;-72
2024/01/29 06:36:24;;;;;;;12.68;6.85;;;2.20;80.60;;;;;;5030601;28;20786;-72
2024/01/29 06:38:49;;;;;;;14.70;7.37;;;2.20;80.20;;;;;;5025532;28;20184;-73
2024/01/29 06:41:22;;;;;;;13.57;7.60;;;2.30;80.20;;;;;;5023728;28;20232;-72
2024/01/29 06:43:49;;;;;;;13.88;7.55;;;2.30;79.70;;;;;;5025311;28;20185;-72
2024/01/29 06:46:14;;;;;;;11.65;7.57;;;2.40;79.30;;;;;;5030270;28;20186;-71
2024/01/29 06:48:40;;;;;;;13.20;7.60;;;2.40;78.10;;;;;;5021402;28;20188;-73
2024/01/29 06:51:06;;;;;;;11.70;6.80;;;2.40;78.00;;;;;;5027637;28;20210;-73
2024/01/29 06:53:33;;;;;;;14.20;7.67;;;2.40;78.00;;;;;;5016671;28;20188;-72
2024/01/29 06:55:59;;;;;;;16.40;7.70;;;2.30;77.80;;;;;;5033403;28;20288;-71
2024/01/29 06:58:25;;;;;;;11.20;7.30;;;2.40;77.70;;;;;;5028580;28;20264;-70
2024/01/29 07:00:51;;;;;;;14.32;8.90;;;2.40;77.60;;;;;;5036318;28;20277;-70
2024/01/29 07:03:18;;;;;;;15.93;8.43;;;2.40;77.60;;;;;;5014421;28;20189;-73
2024/01/29 07:05:45;;;;;;;16.15;8.07;;;2.40;77.70;;;;;;5029170;28;20504;-71
2024/01/29 07:08:11;;;;;;;13.18;8.88;;;2.40;77.70;;;;;;5015037;28;20182;-72
2024/01/29 07:10:37;;;;;;;16.60;8.70;;;2.30;77.40;;;;;;5023089;28;20251;-72
2024/01/29 07:13:04;;;;;;;14.90;8.73;;;2.50;77.70;;;;;;5022336;28;20197;-71
2024/01/29 07:15:30;;;;;;;18.23;10.00;;;2.40;77.40;;;;;;5028013;28;20193;-71
2024/01/29 07:17:55;;;;;;;18.40;10.23;;;2.40;77.70;;;;;;5027714;28;20955;-71
2024/01/29 07:20:21;;;;;;;16.60;10.33;;;2.40;77.80;;;;;;5024739;28;20579;-72
2024/01/29 07:22:47;;;;;;;19.80;9.50;;;2.40;78.10;;;;;;5020664;28;20185;-70
2024/01/29 07:25:12;;;;;;;16.53;8.90;;;2.60;78.30;;;;;;5022154;28;20716;-71
2024/01/29 07:27:38;;;;;;;12.17;8.20;;;2.60;77.40;;;;;;5028611;28;20267;-72
2024/01/29 07:30:04;;;;;;;19.73;8.73;;;2.60;77.30;;;;;;5025032;28;20212;-71
2024/01/29 07:32:31;;;;;;;14.27;9.18;;;2.60;77.00;;;;;;5021431;28;20725;-71
2024/01/29 07:35:00;;;;;;;17.90;9.77;;;2.70;76.80;;;;;;5027297;28;20354;-71
2024/01/29 07:37:27;;;;;;;14.60;8.20;;;2.70;76.70;;;;;;5026383;28;20631;-71
2024/01/29 07:39:53;;;;;;;15.20;8.18;;;2.70;77.00;;;;;;5028008;28;20483;-70
2024/01/29 07:42:19;;;;;;;16.83;7.83;;;2.70;77.00;;;;;;5022039;28;20218;-70
2024/01/29 07:44:44;;;;;;;17.70;8.30;;;2.70;77.10;;;;;;5029174;28;20476;-70
2024/01/29 07:47:10;;;;;;;13.33;7.60;;;2.80;77.00;;;;;;5034645;28;20205;-71
2024/01/29 07:49:36;;;;;;;17.93;9.20;;;2.80;76.20;;;;;;5032047;28;20206;-71
2024/01/29 07:52:02;;;;;;;17.70;8.80;;;2.80;76.10;;;;;;5028087;28;20694;-71
2024/01/29 07:54:27;;;;;;;15.10;9.10;;;2.90;76.20;;;;;;5023038;28;21009;-72
2024/01/29 07:56:53;;;;;;;16.67;9.20;;;2.90;75.90;;;;;;5028776;28;20427;-71
2024/01/29 07:59:19;;;;;;;16.90;9.97;;;2.90;75.90;;;;;;5022977;28;20231;-72
2024/01/29 08:01:44;;;;;;;14.67;9.50;;;3.00;76.10;;;;;;5030288;28;20209;-71
2024/01/29 08:04:11;;;;;;;16.20;9.53;;;2.90;76.10;;;;;;5019993;28;20730;-73
2024/01/29 08:06:37;;;;;;;20.67;10.27;;;2.90;76.40;;;;;;5035192;28;20180;-72
2024/01/29 08:09:04;;;;;;;17.60;8.97;;;3.00;76.20;;;;;;5021737;28;20431;-72
2024/01/29 08:11:30;;;;;;;15.83;8.60;;;3.00;76.10;;;;;;5033696;28;20272;-72
2024/01/29 08:13:56;;;;;;;14.63;9.00;;;3.00;75.90;;;;;;5030267;28;20461;-72
2024/01/29 08:16:22;;;;;;;17.20;9.63;;;3.10;75.50;;;;;;5031606;28;20428;-71
2024/01/29 08:18:49;;;;;;;15.00;9.30;;;3.10;75.50;;;;;;5025840;28;20181;-72
2024/01/29 08:21:14;;;;;;;33.42;10.23;;;3.10;75.50;;;;;;5034115;28;20209;-71
2024/01/29 08:23:40;;;;;;;22.97;9.87;;;3.10;75.50;;;;;;5025816;28;20189;-71
2024/01/29 08:26:06;;;;;;;32.07;10.70;;;3.10;75.50;;;;;;5038692;28;20277;-71
2024/01/29 08:28:32;;;;;;;15.03;9.47;;;3.20;75.70;;;;;;5045459;28;20264;-71
2024/01/29 08:30:59;;;;;;;18.77;10.37;;;3.30;75.40;;;;;;5029664;28;20620;-72
2024/01/29 08:33:25;;;;;;;17.47;10.83;;;3.30;75.10;;;;;;5032200;28;20189;-70
2024/01/29 08:35:51;;;;;;;15.43;9.43;;;3.20;75.40;;;;;;5033724;28;20431;-71
2024/01/29 08:38:16;;;;;;;18.13;10.00;;;3.30;75.10;;;;;;5023993;28;20421;-70
2024/01/29 08:40:42;;;;;;;20.43;10.13;;;3.40;74.90;;;;;;5030939;28;20220;-71
2024/01/29 08:43:08;;;;;;;16.13;10.00;;;3.60;74.80;;;;;;5021847;28;20216;-72
2024/01/29 08:45:35;;;;;;;16.43;10.00;;;3.70;74.00;;;;;;5021154;28;20715;-72
2024/01/29 08:48:03;;;;;;;16.40;9.90;;;3.70;73.90;;;;;;5034830;28;20201;-72
2024/01/29 08:50:32;;;;;;;14.10;9.97;;;3.70;74.00;;;;;;5025315;28;20535;-72
2024/01/29 08:52:58;;;;;;;19.10;9.63;;;3.90;73.30;;;;;;5027324;28;20420;-72
2024/01/29 08:55:23;;;;;;;18.53;10.40;;;3.90;73.20;;;;;;5022431;28;20427;-71
2024/01/29 08:57:49;;;;;;;20.53;10.33;;;4.00;73.00;;;;;;5033790;28;20181;-71
2024/01/29 09:00:15;;;;;;;18.40;9.23;;;4.00;72.70;;;;;;5020952;28;20546;-71
2024/01/29 09:02:41;;;;;;;25.00;10.20;;;3.90;73.00;;;;;;5027235;28;20174;-71
2024/01/29 09:05:08;;;;;;;20.03;10.07;;;4.10;73.20;;;;;;5025668;28;20820;-69
2024/01/29 09:07:34;;;;;;;20.57;10.67;;;4.20;72.60;;;;;;5035676;28;20434;-72
2024/01/29 09:09:59;;;;;;;18.30;10.30;;;4.10;72.90;;;;;;5029371;28;20918;-71
2024/01/29 09:12:25;;;;;;;15.00;9.33;;;4.10;73.50;;;;;;5026434;28;20228;-70
2024/01/29 09:14:51;;;;;;;22.40;10.00;;;4.20;73.90;;;;;;5031328;28;20672;-71
2024/01/29 09:17:16;;;;;;;15.60;9.10;;;4.30;73.70;;;;;;5031561;28;20557;-71
2024/01/29 09:19:45;;;;;;;14.00;9.60;;;4.40;73.60;;;;;;5028788;28;20195;-72
2024/01/29 09:22:11;;;;;;;18.60;10.27;;;4.60;73.20;;;;;;5025956;28;20306;-71
2024/01/29 09:24:37;;;;;;;17.27;10.13;;;4.70;72.90;;;;;;5028919;28;20470;-73
2024/01/29 09:27:02;;;;;;;20.30;10.83;;;4.80;72.40;;;;;;5028010;28;20424;-72
2024/01/29 09:29:28;;;;;;;19.47;10.57;;;4.80;72.30;;;;;;5034890;28;20197;-71
2024/01/29 09:31:53;;;;;;;20.90;10.63;;;5.10;71.10;;;;;;5028325;28;20209;-72
2024/01/29 09:34:20;;;;;;;19.80;10.67;;;5.20;70.50;;;;;;5025969;28;20525;-72
2024/01/29 09:36:46;;;;;;;16.30;10.57;;;5.30;69.90;;;;;;5026182;28;20670;-73
2024/01/29 09:39:12;;;;;;;18.10;9.63;;;5.30;69.90;;;;;;5027194;28;20427;-72
2024/01/29 09:41:38;;;;;;;16.40;9.93;;;5.40;70.10;;;;;;5035342;28;20278;-73
2024/01/29 09:44:12;;;;;;;29.37;11.83;;;5.50;70.40;;;;;;5034509;28;20209;-71
2024/01/29 09:46:40;;;;;;;21.53;12.03;;;5.50;70.10;;;;;;5029888;28;20530;-70
2024/01/29 09:49:06;;;;;;;19.23;11.40;;;5.50;69.80;;;;;;5029940;28;20407;-73
2024/01/29 09:51:33;;;;;;;17.90;10.80;;;5.60;69.80;;;;;;5027407;28;20471;-72
2024/01/29 09:54:01;;;;;;;18.90;11.73;;;5.70;69.80;;;;;;5023158;28;20515;-72
2024/01/29 09:56:27;;;;;;;17.13;11.77;;;5.90;69.50;;;;;;5028409;28;20455;-73
2024/01/29 09:58:53;;;;;;;19.27;11.20;;;6.10;69.40;;;;;;5026247;28;20510;-71
2024/01/29 10:01:21;;;;;;;20.20;12.40;;;6.10;69.10;;;;;;5024625;28;20476;-71
2024/01/29 10:03:47;;;;;;;18.47;12.90;;;6.10;68.80;;;;;;5030557;28;20799;-72
2024/01/29 10:06:13;;;;;;;17.73;11.83;;;6.20;68.50;;;;;;5029986;28;20479;-72
2024/01/29 10:08:39;;;;;;;25.77;12.30;;;6.10;68.80;;;;;;5037090;28;20407;-72
2024/01/29 10:11:05;;;;;;;20.17;11.97;;;6.10;68.80;;;;;;5032541;28;20460;-71
2024/01/29 10:13:32;;;;;;;19.67;12.90;;;6.10;68.60;;;;;;5025640;28;20416;-72
2024/01/29 10:15:57;;;;;;;19.10;11.57;;;6.20;68.90;;;;;;5027556;28;20434;-74
2024/01/29 10:18:23;;;;;;;17.50;12.40;;;6.20;68.50;;;;;;5030772;28;20424;-72
2024/01/29 10:21:03;;;;;;;16.10;11.50;;;6.40;68.60;;;;;;5015703;28;20457;-72
2024/01/29 10:23:29;;;;;;;20.73;12.17;;;6.50;68.60;;;;;;5025244;28;20760;-73
2024/01/29 10:25:58;;;;;;;19.47;11.37;;;6.70;68.50;;;;;;5031944;28;21065;-71
2024/01/29 10:28:26;;;;;;;23.73;12.07;;;6.80;67.90;;;;;;5026164;28;20428;-72
2024/01/29 10:30:56;;;;;;;17.90;12.23;;;7.00;67.90;;;;;;5023277;28;20455;-71
2024/01/29 10:33:22;;;;;;;20.40;12.07;;;7.10;67.60;;;;;;5023507;28;20428;-72
2024/01/29 10:35:49;;;;;;;19.57;11.30;;;7.10;67.00;;;;;;5028830;28;20924;-71
2024/01/29 10:38:20;;;;;;;20.27;12.83;;;7.30;67.20;;;;;;5028860;28;20438;-72
2024/01/29 10:40:46;;;;;;;18.77;11.50;;;7.60;67.00;;;;;;5021341;28;20459;-72
2024/01/29 10:43:19;;;;;;;18.60;11.37;;;8.00;66.30;;;;;;5024606;28;20444;-74
2024/01/29 10:45:48;;;;;;;20.77;11.60;;;8.60;66.40;;;;;;5029337;28;20478;-71
2024/01/29 10:48:20;;;;;;;18.07;12.37;;;9.20;65.80;;;;;;5027583;28;20424;-72
2024/01/29 10:50:47;;;;;;;18.37;11.90;;;10.00;64.40;;;;;;5044880;28;20458;-72
2024/01/29 10:53:15;;;;;;;18.03;10.47;;;10.80;63.50;;;;;;5035758;28;20446;-71
2024/01/29 10:55:46;;;;;;;24.33;12.60;;;11.60;62.80;;;;;;5056203;28;20430;-70
2024/01/29 10:58:13;;;;;;;18.03;11.63;;;12.10;59.90;;;;;;5044055;28;20497;-71
2024/01/29 11:00:41;;;;;;;14.40;10.50;;;11.90;58.50;;;;;;5045400;28;20557;-72
2024/01/29 11:03:08;;;;;;;15.60;10.67;;;12.20;58.90;;;;;;5042671;28;20901;-71
2024/01/29 11:05:35;;;;;;;24.73;12.10;;;12.80;58.20;;;;;;5033464;28;20499;-70
2024/01/29 11:08:03;;;;;;;19.73;11.20;;;13.10;56.00;;;;;;5030896;28;20420;-72
2024/01/29 11:10:30;;;;;;;22.53;12.30;;;13.10;55.00;;;;;;5023634;28;20466;-71
2024/01/29 11:12:57;;;;;;;17.00;11.23;;;12.40;55.20;;;;;;5021220;28;20905;-70
2024/01/29 11:15:24;;;;;;;18.83;11.20;;;11.80;57.20;;;;;;5027729;28;20427;-71
2024/01/29 11:17:50;;;;;;;20.23;11.40;;;11.90;57.80;;;;;;5035069;28;20419;-71
2024/01/29 11:20:20;;;;;;;16.70;12.07;;;12.10;57.40;;;;;;5024938;28;20542;-71
2024/01/29 11:22:50;;;;;;;18.90;13.13;;;12.00;57.70;;;;;;5032015;28;20430;-71
2024/01/29 11:25:17;;;;;;;21.37;14.13;;;11.00;59.30;;;;;;5027030;28;20491;-72
2024/01/29 11:27:48;;;;;;;22.07;13.70;;;10.80;61.30;;;;;;5030157;28;20522;-71
2024/01/29 11:30:19;;;;;;;23.10;14.67;;;11.10;61.20;;;;;;5026886;28;20694;-73
2024/01/29 11:32:46;;;;;;;24.83;14.10;;;11.10;60.40;;;;;;5030752;28;20451;-72
2024/01/29 11:35:20;;;;;;;22.60;13.03;;;11.70;60.10;;;;;;5033928;28;20440;-70
2024/01/29 11:37:49;;;;;;;26.63;14.23;;;11.70;59.10;;;;;;5034469;28;20410;-71
2024/01/29 11:40:35;;;;;;;21.47;13.03;;;10.70;60.90;;;;;;5031119;28;20468;-73
2024/01/29 11:43:05;;;;;;;19.60;12.93;;;10.40;62.00;;;;;;5034833;28;20430;-73
2024/01/29 11:45:32;;;;;;;23.43;14.23;;;10.50;62.60;;;;;;5028880;28;21343;-71
2024/01/29 11:48:00;;;;;;;18.40;12.70;;;10.80;62.30;;;;;;5034784;28;20479;-73
2024/01/29 11:50:27;;;;;;;21.83;12.50;;;10.90;61.90;;;;;;5031263;28;20559;-72
2024/01/29 11:52:52;;;;;;;17.60;12.00;;;11.00;61.60;;;;;;5024703;28;20425;-73
2024/01/29 11:55:21;;;;;;;21.27;13.00;;;11.10;61.50;;;;;;5030799;28;20424;-71
2024/01/29 11:57:51;;;;;;;17.80;11.63;;;11.00;61.50;;;;;;5032543;28;20185;-73
2024/01/29 12:00:19;;;;;;;23.67;12.27;;;11.10;61.60;;;;;;5034930;28;21259;-72
2024/01/29 12:02:48;;;;;;;25.20;12.20;;;11.10;61.60;;;;;;5024944;28;20419;-72
2024/01/29 12:05:18;;;;;;;20.50;12.97;;;11.20;61.60;;;;;;5035536;28;20503;-74
2024/01/29 12:07:48;;;;;;;24.13;13.40;;;11.10;61.50;;;;;;5024396;28;20433;-72
2024/01/29 12:10:17;;;;;;;25.50;13.23;;;11.10;61.60;;;;;;5030798;28;20468;-73
2024/01/29 12:12:43;;;;;;;23.93;12.57;;;11.20;61.30;;;;;;5020886;28;20440;-71
2024/01/29 12:15:12;;;;;;;17.43;11.63;;;11.10;61.50;;;;;;5028007;28;20417;-72
2024/01/29 12:17:44;;;;;;;20.87;12.93;;;11.20;61.60;;;;;;5031993;28;20430;-72
2024/01/29 12:20:11;;;;;;;21.10;13.30;;;11.10;61.70;;;;;;5030482;28;20449;-71
2024/01/29 12:22:38;;;;;;;18.20;11.57;;;11.00;61.70;;;;;;5032755;28;20482;-72
2024/01/29 12:25:08;;;;;;;18.10;11.20;;;11.00;62.00;;;;;;5033510;28;20881;-72
2024/01/29 12:27:34;;;;;;;17.57;10.90;;;11.10;62.00;;;;;;5039104;28;20904;-72
2024/01/29 12:30:03;;;;;;;16.57;11.93;;;11.30;62.00;;;;;;5036490;28;20408;-72
2024/01/29 12:32:29;;;;;;;17.03;11.00;;;11.30;61.60;;;;;;5027487;28;20425;-72
2024/01/29 12:34:55;;;;;;;15.50;10.97;;;11.40;61.30;;;;;;5031599;28;20420;-72
2024/01/29 12:37:21;;;;;;;18.10;11.47;;;11.70;60.70;;;;;;5033064;28;20190;-72
2024/01/29 12:39:55;;;;;;;19.83;11.63;;;11.80;60.60;;;;;;5028485;28;20190;-71